sensor_id;sensor_type;location;lat;lon;timestamp;pressure;altitude;pressure_sealevel;temperature;humidity
10176;BME280;18221;38.704;0.152;2022-07-29T00:23:55;98597.06;;;29.84;51.23
10176;BME280;18221;38.704;0.152;2022-07-29T00:26:23;98599.81;;;29.84;51.20
10176;BME280;18221;38.704;0.152;2022-07-29T00:28:54;98597.59;;;29.81;51.45
10176;BME280;18221;38.704;0.152;2022-07-29T00:31:21;98596.22;;;29.84;51.48
10176;BME280;18221;38.704;0.152;2022-07-29T00:33:49;98585.28;;;29.84;51.50
10176;BME280;18221;38.704;0.152;2022-07-29T00:36:17;98586.94;;;29.85;51.61
10176;BME280;18221;38.704;0.152;2022-07-29T00:38:44;98587.47;;;29.82;51.33
10176;BME280;18221;38.704;0.152;2022-07-29T00:41:14;98591.03;;;29.82;51.30
10176;BME280;18221;38.704;0.152;2022-07-29T00:43:42;98584.75;;;29.82;51.40
10176;BME280;18221;38.704;0.152;2022-07-29T00:46:10;98581.97;;;29.77;51.34
10176;BME280;18221;38.704;0.152;2022-07-29T00:48:38;98576.75;;;29.75;51.08
10176;BME280;18221;38.704;0.152;2022-07-29T00:51:07;98575.13;;;29.74;51.39
10176;BME280;18221;38.704;0.152;2022-07-29T00:53:36;98578.97;;;29.73;51.69
10176;BME280;18221;38.704;0.152;2022-07-29T00:56:05;98581.16;;;29.71;51.23
10176;BME280;18221;38.704;0.152;2022-07-29T00:58:34;98584.44;;;29.73;51.78
10176;BME280;18221;38.704;0.152;2022-07-29T01:01:02;98572.66;;;29.73;51.88
10176;BME280;18221;38.704;0.152;2022-07-29T01:03:30;98568.00;;;29.68;51.50
10176;BME280;18221;38.704;0.152;2022-07-29T01:05:59;98565.56;;;29.67;51.82
10176;BME280;18221;38.704;0.152;2022-07-29T01:08:27;98568.31;;;29.62;52.12
10176;BME280;18221;38.704;0.152;2022-07-29T01:10:55;98573.78;;;29.62;52.02
10176;BME280;18221;38.704;0.152;2022-07-29T01:13:23;98567.19;;;29.63;52.13
10176;BME280;18221;38.704;0.152;2022-07-29T01:16:01;98575.94;;;29.60;52.09
10176;BME280;18221;38.704;0.152;2022-07-29T01:18:34;98576.47;;;29.52;52.93
10176;BME280;18221;38.704;0.152;2022-07-29T01:21:43;98572.13;;;29.56;52.65
10176;BME280;18221;38.704;0.152;2022-07-29T01:24:51;98576.47;;;29.57;53.15
10176;BME280;18221;38.704;0.152;2022-07-29T01:27:47;98580.31;;;29.51;53.29
10176;BME280;18221;38.704;0.152;2022-07-29T01:30:24;98574.31;;;29.54;53.44
10176;BME280;18221;38.704;0.152;2022-07-29T01:32:59;98586.06;;;29.59;53.40
10176;BME280;18221;38.704;0.152;2022-07-29T01:35:38;98576.75;;;29.60;53.25
10176;BME280;18221;38.704;0.152;2022-07-29T01:38:13;98586.63;;;29.66;53.09
10176;BME280;18221;38.704;0.152;2022-07-29T01:40:49;98576.50;;;29.72;53.17
10176;BME280;18221;38.704;0.152;2022-07-29T01:43:29;98575.69;;;29.71;53.15
10176;BME280;18221;38.704;0.152;2022-07-29T01:46:05;98574.84;;;29.71;52.91
10176;BME280;18221;38.704;0.152;2022-07-29T01:48:40;98576.75;;;29.75;52.91
10176;BME280;18221;38.704;0.152;2022-07-29T01:51:18;98588.03;;;29.84;52.79
10176;BME280;18221;38.704;0.152;2022-07-29T01:53:55;98588.56;;;29.86;52.67
10176;BME280;18221;38.704;0.152;2022-07-29T01:56:29;98591.59;;;29.89;52.46
10176;BME280;18221;38.704;0.152;2022-07-29T01:59:01;98590.75;;;29.84;51.78
10176;BME280;18221;38.704;0.152;2022-07-29T02:01:34;98591.59;;;29.84;52.07
10176;BME280;18221;38.704;0.152;2022-07-29T02:04:05;98593.50;;;29.89;52.33
10176;BME280;18221;38.704;0.152;2022-07-29T02:06:37;98586.94;;;29.95;52.00
10176;BME280;18221;38.704;0.152;2022-07-29T02:09:07;98594.03;;;29.96;51.75
10176;BME280;18221;38.704;0.152;2022-07-29T02:11:38;98591.88;;;29.98;51.82
10176;BME280;18221;38.704;0.152;2022-07-29T02:14:09;98588.00;;;29.99;51.77
10176;BME280;18221;38.704;0.152;2022-07-29T02:16:42;98580.34;;;30.01;51.50
10176;BME280;18221;38.704;0.152;2022-07-29T02:19:14;98583.06;;;30.01;51.60
10176;BME280;18221;38.704;0.152;2022-07-29T02:21:44;98586.94;;;30.00;51.40
10176;BME280;18221;38.704;0.152;2022-07-29T02:24:14;98583.34;;;30.05;51.41
10176;BME280;18221;38.704;0.152;2022-07-29T02:26:44;98590.75;;;30.04;51.27
10176;BME280;18221;38.704;0.152;2022-07-29T02:29:15;98584.19;;;30.05;51.17
10176;BME280;18221;38.704;0.152;2022-07-29T02:31:46;98582.53;;;30.09;50.82
10176;BME280;18221;38.704;0.152;2022-07-29T02:34:18;98588.00;;;30.09;51.17
10176;BME280;18221;38.704;0.152;2022-07-29T02:36:48;98579.78;;;30.09;51.10
10176;BME280;18221;38.704;0.152;2022-07-29T02:39:18;98578.97;;;29.98;51.22
10176;BME280;18221;38.704;0.152;2022-07-29T02:41:50;98581.47;;;29.95;51.25
10176;BME280;18221;38.704;0.152;2022-07-29T02:44:22;98581.72;;;29.93;51.69
10176;BME280;18221;38.704;0.152;2022-07-29T02:47:03;98590.22;;;29.97;51.38
10176;BME280;18221;38.704;0.152;2022-07-29T02:49:37;98590.50;;;30.01;51.33
10176;BME280;18221;38.704;0.152;2022-07-29T02:52:13;98582.81;;;30.03;51.24
10176;BME280;18221;38.704;0.152;2022-07-29T02:54:52;98581.97;;;30.07;51.05
10176;BME280;18221;38.704;0.152;2022-07-29T02:57:31;98581.97;;;30.07;51.05
10176;BME280;18221;38.704;0.152;2022-07-29T03:00:05;98585.53;;;30.08;51.36
10176;BME280;18221;38.704;0.152;2022-07-29T03:02:40;98580.06;;;30.08;50.92
10176;BME280;18221;38.704;0.152;2022-07-29T03:05:17;98581.72;;;30.09;51.09
10176;BME280;18221;38.704;0.152;2022-07-29T03:07:55;98578.13;;;30.18;51.24
10176;BME280;18221;38.704;0.152;2022-07-29T03:10:26;98577.84;;;30.15;50.93
10176;BME280;18221;38.704;0.152;2022-07-29T03:12:56;98576.78;;;30.11;51.10
10176;BME280;18221;38.704;0.152;2022-07-29T03:15:26;98582.00;;;30.02;51.58
10176;BME280;18221;38.704;0.152;2022-07-29T03:17:56;98586.09;;;30.05;51.34
10176;BME280;18221;38.704;0.152;2022-07-29T03:20:26;98591.84;;;30.08;51.75
10176;BME280;18221;38.704;0.152;2022-07-29T03:22:54;98593.78;;;30.03;51.78
10176;BME280;18221;38.704;0.152;2022-07-29T03:25:22;98591.28;;;30.01;51.44
10176;BME280;18221;38.704;0.152;2022-07-29T03:27:50;98589.66;;;29.90;51.66
10176;BME280;18221;38.704;0.152;2022-07-29T03:30:17;98587.47;;;29.92;52.08
10176;BME280;18221;38.704;0.152;2022-07-29T03:32:46;98590.75;;;29.94;51.80
10176;BME280;18221;38.704;0.152;2022-07-29T03:35:15;98595.69;;;29.97;51.59
10176;BME280;18221;38.704;0.152;2022-07-29T03:37:44;98595.13;;;30.00;51.67
10176;BME280;18221;38.704;0.152;2022-07-29T03:40:19;98590.47;;;30.06;51.24
10176;BME280;18221;38.704;0.152;2022-07-29T03:42:51;98592.41;;;29.90;51.75
10176;BME280;18221;38.704;0.152;2022-07-29T03:45:23;98592.66;;;29.78;52.00
10176;BME280;18221;38.704;0.152;2022-07-29T03:47:56;98596.78;;;29.86;51.78
10176;BME280;18221;38.704;0.152;2022-07-29T03:50:30;98596.22;;;29.89;51.94
10176;BME280;18221;38.704;0.152;2022-07-29T03:52:59;98590.75;;;29.84;51.54
10176;BME280;18221;38.704;0.152;2022-07-29T03:55:30;98592.41;;;29.85;51.65
10176;BME280;18221;38.704;0.152;2022-07-29T03:58:01;98591.03;;;29.77;51.69
10176;BME280;18221;38.704;0.152;2022-07-29T04:00:31;98599.50;;;29.81;51.33
10176;BME280;18221;38.704;0.152;2022-07-29T04:03:00;98591.84;;;29.88;50.96
10176;BME280;18221;38.704;0.152;2022-07-29T04:05:29;98594.88;;;29.81;51.20
10176;BME280;18221;38.704;0.152;2022-07-29T04:07:57;98596.53;;;29.87;51.13
10176;BME280;18221;38.704;0.152;2022-07-29T04:10:25;98599.25;;;29.87;50.96
10176;BME280;18221;38.704;0.152;2022-07-29T04:12:53;98590.75;;;29.84;50.93
10176;BME280;18221;38.704;0.152;2022-07-29T04:15:21;98593.72;;;29.67;51.10
10176;BME280;18221;38.704;0.152;2022-07-29T04:17:49;98591.28;;;29.71;50.38
10176;BME280;18221;38.704;0.152;2022-07-29T04:20:16;98598.94;;;29.74;50.15
10176;BME280;18221;38.704;0.152;2022-07-29T04:22:46;98595.66;;;29.77;49.75
10176;BME280;18221;38.704;0.152;2022-07-29T04:25:14;98592.09;;;29.66;49.44
10176;BME280;18221;38.704;0.152;2022-07-29T04:27:42;98600.56;;;29.65;49.90
10176;BME280;18221;38.704;0.152;2022-07-29T04:30:23;98599.78;;;29.69;49.81
10176;BME280;18221;38.704;0.152;2022-07-29T04:32:51;98607.97;;;29.74;49.36
10176;BME280;18221;38.704;0.152;2022-07-29T04:35:19;98601.13;;;29.77;49.35
10176;BME280;18221;38.704;0.152;2022-07-29T04:37:49;98608.22;;;29.58;49.97
10176;BME280;18221;38.704;0.152;2022-07-29T04:40:17;98607.16;;;29.59;49.56
10176;BME280;18221;38.704;0.152;2022-07-29T04:42:45;98612.09;;;29.62;50.00
10176;BME280;18221;38.704;0.152;2022-07-29T04:45:13;98605.78;;;29.66;49.75
10176;BME280;18221;38.704;0.152;2022-07-29T04:47:41;98604.41;;;29.64;50.19
10176;BME280;18221;38.704;0.152;2022-07-29T04:50:09;98609.34;;;29.62;51.02
10176;BME280;18221;38.704;0.152;2022-07-29T04:52:38;98609.06;;;29.68;51.00
10176;BME280;18221;38.704;0.152;2022-07-29T04:55:08;98618.63;;;29.71;51.09
10176;BME280;18221;38.704;0.152;2022-07-29T04:57:36;98618.91;;;29.64;51.85
10176;BME280;18221;38.704;0.152;2022-07-29T05:00:06;98620.81;;;29.64;51.62
10176;BME280;18221;38.704;0.152;2022-07-29T05:02:34;98625.47;;;29.48;52.17
10176;BME280;18221;38.704;0.152;2022-07-29T05:05:03;98630.41;;;29.51;52.08
10176;BME280;18221;38.704;0.152;2022-07-29T05:07:31;98633.94;;;29.57;51.77
10176;BME280;18221;38.704;0.152;2022-07-29T05:09:59;98636.97;;;29.60;52.08
10176;BME280;18221;38.704;0.152;2022-07-29T05:12:28;98629.28;;;29.52;52.31
10176;BME280;18221;38.704;0.152;2022-07-29T05:14:56;98638.59;;;29.51;52.07
10176;BME280;18221;38.704;0.152;2022-07-29T05:17:24;98631.72;;;29.38;52.56
10176;BME280;18221;38.704;0.152;2022-07-29T05:19:52;98639.13;;;29.43;52.55
10176;BME280;18221;38.704;0.152;2022-07-29T05:22:21;98646.22;;;29.49;52.54
10176;BME280;18221;38.704;0.152;2022-07-29T05:24:49;98649.81;;;29.55;52.81
10176;BME280;18221;38.704;0.152;2022-07-29T05:27:17;98653.06;;;29.52;52.61
10176;BME280;18221;38.704;0.152;2022-07-29T05:29:46;98651.75;;;29.64;52.94
10176;BME280;18221;38.704;0.152;2022-07-29T05:32:14;98650.38;;;29.62;52.52
10176;BME280;18221;38.704;0.152;2022-07-29T05:34:42;98650.94;;;29.64;52.95
10176;BME280;18221;38.704;0.152;2022-07-29T05:37:10;98658.03;;;29.65;52.84
10176;BME280;18221;38.704;0.152;2022-07-29T05:39:39;98664.31;;;29.65;52.62
10176;BME280;18221;38.704;0.152;2022-07-29T05:42:09;98661.06;;;29.63;52.33
10176;BME280;18221;38.704;0.152;2022-07-29T05:44:37;98647.38;;;29.68;52.20
10176;BME280;18221;38.704;0.152;2022-07-29T05:47:07;98652.31;;;29.66;51.98
10176;BME280;18221;38.704;0.152;2022-07-29T05:49:34;98648.44;;;29.62;51.50
10176;BME280;18221;38.704;0.152;2022-07-29T05:52:03;98656.66;;;29.57;51.33
10176;BME280;18221;38.704;0.152;2022-07-29T05:54:31;98654.19;;;29.61;51.61
10176;BME280;18221;38.704;0.152;2022-07-29T05:56:59;98649.28;;;29.63;51.69
10176;BME280;18221;38.704;0.152;2022-07-29T05:59:27;98655.03;;;29.71;51.16
10176;BME280;18221;38.704;0.152;2022-07-29T06:01:55;98657.50;;;29.78;51.42
10176;BME280;18221;38.704;0.152;2022-07-29T06:04:24;98665.75;;;29.83;51.28
10176;BME280;18221;38.704;0.152;2022-07-29T06:06:52;98657.50;;;29.68;51.44
10176;BME280;18221;38.704;0.152;2022-07-29T06:09:20;98659.97;;;29.74;51.51
10176;BME280;18221;38.704;0.152;2022-07-29T06:11:49;98657.50;;;29.78;51.75
10176;BME280;18221;38.704;0.152;2022-07-29T06:14:16;98666.31;;;29.90;51.18
10176;BME280;18221;38.704;0.152;2022-07-29T06:16:45;98672.59;;;29.90;51.58
10176;BME280;18221;38.704;0.152;2022-07-29T06:19:13;98675.91;;;29.92;51.73
10176;BME280;18221;38.704;0.152;2022-07-29T06:21:44;98676.16;;;30.01;51.48
10176;BME280;18221;38.704;0.152;2022-07-29T06:24:12;98679.47;;;30.13;51.58
10176;BME280;18221;38.704;0.152;2022-07-29T06:26:41;98683.03;;;30.14;51.34
10176;BME280;18221;38.704;0.152;2022-07-29T06:29:10;98681.94;;;30.15;51.17
10176;BME280;18221;38.704;0.152;2022-07-29T06:31:38;98687.69;;;30.23;51.21
10176;BME280;18221;38.704;0.152;2022-07-29T06:34:07;98688.22;;;30.25;50.54
10176;BME280;18221;38.704;0.152;2022-07-29T06:36:36;98693.69;;;30.30;50.64
10176;BME280;18221;38.704;0.152;2022-07-29T06:39:07;98694.81;;;30.34;50.50
10176;BME280;18221;38.704;0.152;2022-07-29T06:41:35;98690.97;;;30.45;50.32
10176;BME280;18221;38.704;0.152;2022-07-29T06:44:03;98699.22;;;30.55;50.47
10176;BME280;18221;38.704;0.152;2022-07-29T06:46:32;98705.50;;;30.46;49.81
10176;BME280;18221;38.704;0.152;2022-07-29T06:49:01;98711.25;;;30.29;49.77
10176;BME280;18221;38.704;0.152;2022-07-29T06:51:29;98713.72;;;30.36;50.31
10176;BME280;18221;38.704;0.152;2022-07-29T06:53:57;98716.22;;;30.42;50.31
10176;BME280;18221;38.704;0.152;2022-07-29T06:56:27;98720.03;;;30.51;49.69
10176;BME280;18221;38.704;0.152;2022-07-29T06:58:54;98708.50;;;30.65;49.44
10176;BME280;18221;38.704;0.152;2022-07-29T07:01:22;98707.38;;;30.76;49.30
10176;BME280;18221;38.704;0.152;2022-07-29T07:03:50;98712.00;;;30.85;48.83
10176;BME280;18221;38.704;0.152;2022-07-29T07:06:18;98705.16;;;30.88;47.84
10176;BME280;18221;38.704;0.152;2022-07-29T07:08:46;98718.28;;;31.06;47.23
10176;BME280;18221;38.704;0.152;2022-07-29T07:11:15;98712.72;;;31.26;47.00
10176;BME280;18221;38.704;0.152;2022-07-29T07:13:44;98712.16;;;31.29;45.76
10176;BME280;18221;38.704;0.152;2022-07-29T07:16:13;98714.59;;;31.46;45.54
10176;BME280;18221;38.704;0.152;2022-07-29T07:18:40;98718.72;;;31.48;45.28
10176;BME280;18221;38.704;0.152;2022-07-29T07:21:08;98715.38;;;31.56;44.65
10176;BME280;18221;38.704;0.152;2022-07-29T07:23:36;98720.53;;;31.63;44.86
10176;BME280;18221;38.704;0.152;2022-07-29T07:26:05;98726.59;;;31.65;44.71
10176;BME280;18221;38.704;0.152;2022-07-29T07:28:33;98727.91;;;31.72;44.40
10176;BME280;18221;38.704;0.152;2022-07-29T07:31:02;98724.38;;;31.67;44.28
10176;BME280;18221;38.704;0.152;2022-07-29T07:33:30;98724.41;;;31.62;44.36
10176;BME280;18221;38.704;0.152;2022-07-29T07:35:58;98721.91;;;31.65;44.58
10176;BME280;18221;38.704;0.152;2022-07-29T07:38:26;98731.22;;;31.69;44.39
10176;BME280;18221;38.704;0.152;2022-07-29T07:40:54;98729.47;;;31.84;44.35
10176;BME280;18221;38.704;0.152;2022-07-29T07:43:22;98721.25;;;31.89;43.96
10176;BME280;18221;38.704;0.152;2022-07-29T07:45:49;98731.47;;;31.78;44.59
10176;BME280;18221;38.704;0.152;2022-07-29T07:48:19;98725.56;;;31.95;44.09
10176;BME280;18221;38.704;0.152;2022-07-29T07:50:47;98723.81;;;32.14;43.93
10176;BME280;18221;38.704;0.152;2022-07-29T07:53:16;98722.06;;;32.28;43.55
10176;BME280;18221;38.704;0.152;2022-07-29T07:55:44;98728.50;;;32.13;42.51
10176;BME280;18221;38.704;0.152;2022-07-29T07:58:12;98724.94;;;32.13;42.76
10176;BME280;18221;38.704;0.152;2022-07-29T08:00:40;98722.41;;;32.21;43.30
10176;BME280;18221;38.704;0.152;2022-07-29T08:03:08;98727.28;;;32.29;43.29
10176;BME280;18221;38.704;0.152;2022-07-29T08:05:40;98731.84;;;32.39;43.08
10176;BME280;18221;38.704;0.152;2022-07-29T08:08:08;98724.97;;;32.75;42.22
10176;BME280;18221;38.704;0.152;2022-07-29T08:10:36;98727.94;;;33.31;40.42
10176;BME280;18221;38.704;0.152;2022-07-29T08:13:25;98721.56;;;34.15;38.35
10176;BME280;18221;38.704;0.152;2022-07-29T08:15:58;98716.81;;;34.86;36.96
10176;BME280;18221;38.704;0.152;2022-07-29T08:18:30;98717.56;;;35.46;36.07
10176;BME280;18221;38.704;0.152;2022-07-29T08:20:59;98709.56;;;35.85;34.81
10176;BME280;18221;38.704;0.152;2022-07-29T08:23:27;98706.25;;;36.41;33.62
10176;BME280;18221;38.704;0.152;2022-07-29T08:26:01;98707.50;;;36.79;32.93
10176;BME280;18221;38.704;0.152;2022-07-29T08:28:29;98697.72;;;37.43;31.79
10176;BME280;18221;38.704;0.152;2022-07-29T08:30:57;98701.81;;;37.71;30.94
10176;BME280;18221;38.704;0.152;2022-07-29T08:33:25;98699.75;;;37.94;30.23
10176;BME280;18221;38.704;0.152;2022-07-29T08:35:52;98693.84;;;37.79;30.12
10176;BME280;18221;38.704;0.152;2022-07-29T08:38:22;98700.25;;;38.05;30.39
10176;BME280;18221;38.704;0.152;2022-07-29T08:40:50;98700.41;;;37.91;29.58
10176;BME280;18221;38.704;0.152;2022-07-29T08:43:18;98693.19;;;37.73;30.76
10176;BME280;18221;38.704;0.152;2022-07-29T08:45:48;98700.34;;;37.57;31.41
10176;BME280;18221;38.704;0.152;2022-07-29T08:48:20;98697.56;;;36.78;32.76
10176;BME280;18221;38.704;0.152;2022-07-29T08:50:55;98698.94;;;36.36;33.38
10176;BME280;18221;38.704;0.152;2022-07-29T08:53:26;98700.34;;;35.76;34.96
10176;BME280;18221;38.704;0.152;2022-07-29T08:55:57;98699.88;;;35.47;35.42
10176;BME280;18221;38.704;0.152;2022-07-29T08:58:27;98705.97;;;34.89;36.08
10176;BME280;18221;38.704;0.152;2022-07-29T09:01:02;98706.22;;;34.60;36.89
10176;BME280;18221;38.704;0.152;2022-07-29T09:03:34;98707.75;;;34.21;37.48
10176;BME280;18221;38.704;0.152;2022-07-29T09:06:04;98709.28;;;34.08;37.52
10176;BME280;18221;38.704;0.152;2022-07-29T09:08:34;98710.16;;;33.85;37.37
10176;BME280;18221;38.704;0.152;2022-07-29T09:11:03;98711.50;;;33.69;38.06
10176;BME280;18221;38.704;0.152;2022-07-29T09:13:31;98701.81;;;33.52;38.99
10176;BME280;18221;38.704;0.152;2022-07-29T09:15:59;98712.63;;;33.68;39.46
10176;BME280;18221;38.704;0.152;2022-07-29T09:18:39;98711.38;;;33.60;39.80
10176;BME280;18221;38.704;0.152;2022-07-29T09:21:09;98716.56;;;33.38;39.48
10176;BME280;18221;38.704;0.152;2022-07-29T09:24:06;98716.44;;;33.06;40.09
10176;BME280;18221;38.704;0.152;2022-07-29T09:26:37;98714.53;;;33.25;40.19
10176;BME280;18221;38.704;0.152;2022-07-29T09:29:10;98713.31;;;33.36;39.60
10176;BME280;18221;38.704;0.152;2022-07-29T09:31:40;98719.84;;;33.40;40.25
10176;BME280;18221;38.704;0.152;2022-07-29T09:34:11;98720.88;;;33.25;41.24
10176;BME280;18221;38.704;0.152;2022-07-29T09:36:41;98724.69;;;33.06;42.38
10176;BME280;18221;38.704;0.152;2022-07-29T09:39:11;98725.38;;;33.16;41.95
10176;BME280;18221;38.704;0.152;2022-07-29T09:41:47;98722.91;;;33.15;41.69
10176;BME280;18221;38.704;0.152;2022-07-29T09:44:16;98725.38;;;33.16;41.87
10176;BME280;18221;38.704;0.152;2022-07-29T09:46:59;98724.63;;;33.34;41.42
10176;BME280;18221;38.704;0.152;2022-07-29T09:49:32;98733.84;;;33.43;41.63
10176;BME280;18221;38.704;0.152;2022-07-29T09:52:05;98731.41;;;33.42;41.16
10176;BME280;18221;38.704;0.152;2022-07-29T09:54:36;98736.16;;;33.36;42.04
10176;BME280;18221;38.704;0.152;2022-07-29T09:57:07;98735.31;;;33.36;41.53
10176;BME280;18221;38.704;0.152;2022-07-29T09:59:36;98738.25;;;33.44;41.18
10176;BME280;18221;38.704;0.152;2022-07-29T10:02:12;98736.25;;;33.50;41.16
10176;BME280;18221;38.704;0.152;2022-07-29T10:04:42;98744.09;;;33.38;42.62
10176;BME280;18221;38.704;0.152;2022-07-29T10:07:10;98742.78;;;33.54;41.25
10176;BME280;18221;38.704;0.152;2022-07-29T10:09:49;98748.88;;;33.51;41.52
10176;BME280;18221;38.704;0.152;2022-07-29T10:12:20;98732.25;;;33.61;41.59
10176;BME280;18221;38.704;0.152;2022-07-29T10:14:49;98737.75;;;33.61;41.68
10176;BME280;18221;38.704;0.152;2022-07-29T10:17:18;98735.78;;;33.67;41.30
10176;BME280;18221;38.704;0.152;2022-07-29T10:19:47;98739.66;;;33.66;41.82
10176;BME280;18221;38.704;0.152;2022-07-29T10:22:16;98741.78;;;33.69;41.31
10176;BME280;18221;38.704;0.152;2022-07-29T10:24:46;98742.09;;;33.67;42.06
10176;BME280;18221;38.704;0.152;2022-07-29T10:27:14;98743.28;;;33.61;42.07
10176;BME280;18221;38.704;0.152;2022-07-29T10:29:42;98743.97;;;33.48;41.27
10176;BME280;18221;38.704;0.152;2022-07-29T10:32:41;98749.94;;;33.55;41.66
10176;BME280;18221;38.704;0.152;2022-07-29T10:35:27;98750.66;;;33.66;41.68
10176;BME280;18221;38.704;0.152;2022-07-29T10:38:42;98747.09;;;33.65;41.46
10176;BME280;18221;38.704;0.152;2022-07-29T10:41:53;98759.28;;;33.59;40.86
10176;BME280;18221;38.704;0.152;2022-07-29T10:44:25;98759.00;;;33.61;41.31
10176;BME280;18221;38.704;0.152;2022-07-29T10:46:54;98759.31;;;33.78;41.18
10176;BME280;18221;38.704;0.152;2022-07-29T10:49:24;98761.41;;;33.86;41.09
10176;BME280;18221;38.704;0.152;2022-07-29T10:51:59;98769.06;;;33.70;41.08
10176;BME280;18221;38.704;0.152;2022-07-29T10:54:48;98779.47;;;33.73;41.31
10176;BME280;18221;38.704;0.152;2022-07-29T10:57:24;98769.13;;;33.65;41.84
10176;BME280;18221;38.704;0.152;2022-07-29T11:00:29;98776.38;;;33.56;41.41
10176;BME280;18221;38.704;0.152;2022-07-29T11:02:57;98789.56;;;33.59;41.16
10176;BME280;18221;38.704;0.152;2022-07-29T11:05:26;98784.03;;;33.35;41.22
10176;BME280;18221;38.704;0.152;2022-07-29T11:08:22;98781.91;;;33.51;41.42
10176;BME280;18221;38.704;0.152;2022-07-29T11:13:53;98781.09;;;33.56;41.21
10176;BME280;18221;38.704;0.152;2022-07-29T11:16:22;98789.22;;;33.66;40.57
10176;BME280;18221;38.704;0.152;2022-07-29T11:19:20;98781.91;;;33.51;40.13
10176;BME280;18221;38.704;0.152;2022-07-29T11:21:49;98784.81;;;33.65;40.70
10176;BME280;18221;38.704;0.152;2022-07-29T11:24:21;98787.03;;;33.39;41.01
10176;BME280;18221;38.704;0.152;2022-07-29T11:27:13;98783.00;;;33.55;41.16
10176;BME280;18221;38.704;0.152;2022-07-29T11:29:54;98783.00;;;33.55;40.52
10176;BME280;18221;38.704;0.152;2022-07-29T11:32:24;98777.06;;;33.43;40.77
10176;BME280;18221;38.704;0.152;2022-07-29T11:35:15;98782.28;;;33.44;40.49
10176;BME280;18221;38.704;0.152;2022-07-29T11:37:43;98780.78;;;33.57;40.69
10176;BME280;18221;38.704;0.152;2022-07-29T11:40:16;98777.88;;;33.43;40.69
10176;BME280;18221;38.704;0.152;2022-07-29T11:42:46;98784.69;;;33.51;40.65
10176;BME280;18221;38.704;0.152;2022-07-29T11:45:45;98780.47;;;33.59;40.67
10176;BME280;18221;38.704;0.152;2022-07-29T11:48:18;98778.66;;;33.73;40.62
10176;BME280;18221;38.704;0.152;2022-07-29T11:50:46;98786.41;;;33.71;40.35
10176;BME280;18221;38.704;0.152;2022-07-29T11:53:15;98778.53;;;33.83;40.55
10176;BME280;18221;38.704;0.152;2022-07-29T11:55:43;98781.06;;;33.98;39.91
10176;BME280;18221;38.704;0.152;2022-07-29T11:58:11;98776.53;;;33.88;39.96
10176;BME280;18221;38.704;0.152;2022-07-29T12:00:41;98789.78;;;33.86;40.45
10176;BME280;18221;38.704;0.152;2022-07-29T12:03:11;98779.03;;;33.85;40.45
10176;BME280;18221;38.704;0.152;2022-07-29T12:05:43;98785.28;;;33.90;40.26
10176;BME280;18221;38.704;0.152;2022-07-29T12:08:14;98786.44;;;34.08;40.11
10176;BME280;18221;38.704;0.152;2022-07-29T12:10:46;98792.63;;;34.19;39.48
10176;BME280;18221;38.704;0.152;2022-07-29T12:13:18;98786.75;;;34.06;40.17
10176;BME280;18221;38.704;0.152;2022-07-29T12:15:55;98787.31;;;34.03;39.40
10176;BME280;18221;38.704;0.152;2022-07-29T12:18:26;98791.22;;;34.02;39.99
10176;BME280;18221;38.704;0.152;2022-07-29T12:20:58;98774.19;;;33.95;39.67
10176;BME280;18221;38.704;0.152;2022-07-29T12:23:30;98792.78;;;33.66;40.47
10176;BME280;18221;38.704;0.152;2022-07-29T12:25:59;98783.19;;;33.82;40.33
10176;BME280;18221;38.704;0.152;2022-07-29T12:28:27;98780.91;;;33.89;39.36
10176;BME280;18221;38.704;0.152;2022-07-29T12:30:57;98784.56;;;34.03;39.49
10176;BME280;18221;38.704;0.152;2022-07-29T12:33:28;98787.91;;;34.00;39.39
10176;BME280;18221;38.704;0.152;2022-07-29T12:35:58;98786.81;;;34.01;39.56
10176;BME280;18221;38.704;0.152;2022-07-29T12:38:28;98787.78;;;33.92;40.02
10176;BME280;18221;38.704;0.152;2022-07-29T12:40:56;98788.34;;;34.12;40.36
10176;BME280;18221;38.704;0.152;2022-07-29T12:43:25;98784.09;;;34.20;39.55
10176;BME280;18221;38.704;0.152;2022-07-29T12:45:56;98792.78;;;34.46;39.49
10176;BME280;18221;38.704;0.152;2022-07-29T12:48:34;98788.69;;;34.25;39.95
10176;BME280;18221;38.704;0.152;2022-07-29T12:51:04;98785.41;;;34.41;39.07
10176;BME280;18221;38.704;0.152;2022-07-29T12:53:34;98788.00;;;34.33;40.19
10176;BME280;18221;38.704;0.152;2022-07-29T12:56:03;98779.16;;;34.36;39.56
10176;BME280;18221;38.704;0.152;2022-07-29T12:58:34;98782.09;;;34.39;39.79
10176;BME280;18221;38.704;0.152;2022-07-29T13:01:08;98790.19;;;34.36;39.56
10176;BME280;18221;38.704;0.152;2022-07-29T13:03:52;98778.97;;;34.46;39.73
10176;BME280;18221;38.704;0.152;2022-07-29T13:06:37;98786.75;;;34.44;39.69
10176;BME280;18221;38.704;0.152;2022-07-29T13:09:09;98779.50;;;34.66;39.72
10176;BME280;18221;38.704;0.152;2022-07-29T13:11:40;98786.13;;;34.65;38.76
10176;BME280;18221;38.704;0.152;2022-07-29T13:14:10;98781.97;;;34.49;39.22
10176;BME280;18221;38.704;0.152;2022-07-29T13:17:02;98781.06;;;34.54;40.05
10176;BME280;18221;38.704;0.152;2022-07-29T13:19:36;98786.56;;;34.72;39.06
10176;BME280;18221;38.704;0.152;2022-07-29T13:22:07;98781.84;;;34.73;39.14
10176;BME280;18221;38.704;0.152;2022-07-29T13:24:47;98789.34;;;34.35;39.83
10176;BME280;18221;38.704;0.152;2022-07-29T13:27:15;98789.78;;;34.42;39.91
10176;BME280;18221;38.704;0.152;2022-07-29T13:29:44;98779.41;;;34.53;39.75
10176;BME280;18221;38.704;0.152;2022-07-29T13:32:14;98787.25;;;34.64;39.47
10176;BME280;18221;38.704;0.152;2022-07-29T13:34:43;98776.22;;;34.64;39.07
10176;BME280;18221;38.704;0.152;2022-07-29T13:37:10;98779.88;;;34.60;39.03
10176;BME280;18221;38.704;0.152;2022-07-29T13:39:38;98773.84;;;34.58;39.02
10176;BME280;18221;38.704;0.152;2022-07-29T13:42:07;98781.59;;;34.56;38.53
10176;BME280;18221;38.704;0.152;2022-07-29T13:44:35;98778.38;;;34.67;38.95
10176;BME280;18221;38.704;0.152;2022-07-29T13:47:03;98771.28;;;34.80;38.15
10176;BME280;18221;38.704;0.152;2022-07-29T13:49:33;98765.53;;;34.77;38.49